sensor_id;sensor_type;location;lat;lon;timestamp;temperature;humidity
35240;DHT22;21376;50.954;4.716;2023-04-16T00:00:11;8.30;99.90
35240;DHT22;21376;50.954;4.716;2023-04-16T00:02:40;8.30;99.90
35240;DHT22;21376;50.954;4.716;2023-04-16T00:05:09;8.30;99.90
35240;DHT22;21376;50.954;4.716;2023-04-16T00:07:39;8.40;99.90
35240;DHT22;21376;50.954;4.716;2023-04-16T00:10:08;8.40;99.90
35240;DHT22;21376;50.954;4.716;2023-04-16T00:12:37;8.50;99.90
35240;DHT22;21376;50.954;4.716;2023-04-16T00:15:06;8.60;99.90
35240;DHT22;21376;50.954;4.716;2023-04-16T00:17:35;8.60;99.90
35240;DHT22;21376;50.954;4.716;2023-04-16T00:20:03;8.60;99.90
35240;DHT22;21376;50.954;4.716;2023-04-16T00:22:36;8.70;99.90
35240;DHT22;21376;50.954;4.716;2023-04-16T00:25:04;8.90;99.90
35240;DHT22;21376;50.954;4.716;2023-04-16T00:27:31;8.70;99.90
35240;DHT22;21376;50.954;4.716;2023-04-16T00:29:57;8.80;99.90
35240;DHT22;21376;50.954;4.716;2023-04-16T00:32:22;8.80;99.90
35240;DHT22;21376;50.954;4.716;2023-04-16T00:34:59;8.80;99.90
35240;DHT22;21376;50.954;4.716;2023-04-16T00:37:25;8.70;99.90
35240;DHT22;21376;50.954;4.716;2023-04-16T00:39:51;8.60;99.90
35240;DHT22;21376;50.954;4.716;2023-04-16T00:42:19;8.70;99.90
35240;DHT22;21376;50.954;4.716;2023-04-16T00:44:45;8.50;99.90
35240;DHT22;21376;50.954;4.716;2023-04-16T00:47:11;8.60;99.90
35240;DHT22;21376;50.954;4.716;2023-04-16T00:49:38;8.60;99.90
35240;DHT22;21376;50.954;4.716;2023-04-16T00:52:10;8.60;99.90
35240;DHT22;21376;50.954;4.716;2023-04-16T00:54:36;8.80;99.90
35240;DHT22;21376;50.954;4.716;2023-04-16T00:57:04;8.80;99.90
35240;DHT22;21376;50.954;4.716;2023-04-16T00:59:36;8.80;99.90
35240;DHT22;21376;50.954;4.716;2023-04-16T01:02:08;8.90;99.90
35240;DHT22;21376;50.954;4.716;2023-04-16T01:04:37;9.00;99.90
35240;DHT22;21376;50.954;4.716;2023-04-16T01:07:06;9.00;99.90
35240;DHT22;21376;50.954;4.716;2023-04-16T01:09:39;8.90;99.90
35240;DHT22;21376;50.954;4.716;2023-04-16T01:12:08;9.00;99.90
35240;DHT22;21376;50.954;4.716;2023-04-16T01:14:37;9.10;99.90
35240;DHT22;21376;50.954;4.716;2023-04-16T01:17:03;9.10;99.90
35240;DHT22;21376;50.954;4.716;2023-04-16T01:19:32;8.90;99.90
35240;DHT22;21376;50.954;4.716;2023-04-16T01:22:02;8.90;99.90
35240;DHT22;21376;50.954;4.716;2023-04-16T01:24:29;8.80;99.90
35240;DHT22;21376;50.954;4.716;2023-04-16T01:26:58;9.00;99.90
35240;DHT22;21376;50.954;4.716;2023-04-16T01:29:29;8.90;99.90
35240;DHT22;21376;50.954;4.716;2023-04-16T01:31:57;9.00;99.90
35240;DHT22;21376;50.954;4.716;2023-04-16T01:34:26;9.00;99.90
35240;DHT22;21376;50.954;4.716;2023-04-16T01:36:54;9.00;99.90
35240;DHT22;21376;50.954;4.716;2023-04-16T01:39:22;9.20;99.90
35240;DHT22;21376;50.954;4.716;2023-04-16T01:41:54;8.80;99.90
35240;DHT22;21376;50.954;4.716;2023-04-16T01:44:21;8.80;99.90
35240;DHT22;21376;50.954;4.716;2023-04-16T01:46:48;8.80;99.90
35240;DHT22;21376;50.954;4.716;2023-04-16T01:49:16;8.80;99.90
35240;DHT22;21376;50.954;4.716;2023-04-16T01:51:45;8.80;99.90
35240;DHT22;21376;50.954;4.716;2023-04-16T01:54:14;8.80;99.90
35240;DHT22;21376;50.954;4.716;2023-04-16T01:56:43;8.70;99.90
35240;DHT22;21376;50.954;4.716;2023-04-16T01:59:12;8.60;99.90
35240;DHT22;21376;50.954;4.716;2023-04-16T02:01:39;8.60;99.90
35240;DHT22;21376;50.954;4.716;2023-04-16T02:04:08;8.50;99.90
35240;DHT22;21376;50.954;4.716;2023-04-16T02:06:35;8.70;99.90
35240;DHT22;21376;50.954;4.716;2023-04-16T02:09:02;8.80;99.90
35240;DHT22;21376;50.954;4.716;2023-04-16T02:11:31;8.70;99.90
35240;DHT22;21376;50.954;4.716;2023-04-16T02:13:57;8.60;99.90
35240;DHT22;21376;50.954;4.716;2023-04-16T02:16:26;8.60;99.90
35240;DHT22;21376;50.954;4.716;2023-04-16T02:19:00;8.60;99.90
35240;DHT22;21376;50.954;4.716;2023-04-16T02:21:34;8.50;99.90
35240;DHT22;21376;50.954;4.716;2023-04-16T02:24:01;8.20;99.90
35240;DHT22;21376;50.954;4.716;2023-04-16T02:26:30;8.10;99.90
35240;DHT22;21376;50.954;4.716;2023-04-16T02:28:59;8.10;99.90
35240;DHT22;21376;50.954;4.716;2023-04-16T02:46:15;8.20;99.90
35240;DHT22;21376;50.954;4.716;2023-04-16T02:48:58;8.30;99.90
35240;DHT22;21376;50.954;4.716;2023-04-16T02:51:25;8.10;99.90
35240;DHT22;21376;50.954;4.716;2023-04-16T02:53:52;8.20;99.90
35240;DHT22;21376;50.954;4.716;2023-04-16T02:56:18;8.30;99.90
35240;DHT22;21376;50.954;4.716;2023-04-16T02:58:44;8.30;99.90
35240;DHT22;21376;50.954;4.716;2023-04-16T03:01:13;8.30;99.90
35240;DHT22;21376;50.954;4.716;2023-04-16T03:03:46;8.40;99.90
35240;DHT22;21376;50.954;4.716;2023-04-16T03:29:27;8.30;99.90
35240;DHT22;21376;50.954;4.716;2023-04-16T03:31:53;8.40;99.90
35240;DHT22;21376;50.954;4.716;2023-04-16T03:34:19;8.30;99.90
35240;DHT22;21376;50.954;4.716;2023-04-16T03:36:48;8.40;99.90
35240;DHT22;21376;50.954;4.716;2023-04-16T03:39:14;8.30;99.90
35240;DHT22;21376;50.954;4.716;2023-04-16T03:41:40;8.20;99.90
35240;DHT22;21376;50.954;4.716;2023-04-16T03:44:05;8.10;99.90
35240;DHT22;21376;50.954;4.716;2023-04-16T03:46:31;8.10;99.90
35240;DHT22;21376;50.954;4.716;2023-04-16T03:48:57;8.30;99.90
35240;DHT22;21376;50.954;4.716;2023-04-16T03:51:24;8.60;99.90
35240;DHT22;21376;50.954;4.716;2023-04-16T03:53:51;8.40;99.90
35240;DHT22;21376;50.954;4.716;2023-04-16T03:56:20;8.30;99.90
35240;DHT22;21376;50.954;4.716;2023-04-16T03:58:49;8.40;99.90
35240;DHT22;21376;50.954;4.716;2023-04-16T04:01:17;8.40;99.90
35240;DHT22;21376;50.954;4.716;2023-04-16T04:03:46;8.30;99.90
35240;DHT22;21376;50.954;4.716;2023-04-16T04:06:11;8.30;99.90
35240;DHT22;21376;50.954;4.716;2023-04-16T04:08:40;8.30;99.90
35240;DHT22;21376;50.954;4.716;2023-04-16T04:11:09;8.30;99.90
35240;DHT22;21376;50.954;4.716;2023-04-16T04:13:36;8.40;99.90
35240;DHT22;21376;50.954;4.716;2023-04-16T04:16:06;8.40;99.90
35240;DHT22;21376;50.954;4.716;2023-04-16T04:18:35;8.50;99.90
35240;DHT22;21376;50.954;4.716;2023-04-16T04:21:10;8.40;99.90
35240;DHT22;21376;50.954;4.716;2023-04-16T04:23:38;8.50;99.90
35240;DHT22;21376;50.954;4.716;2023-04-16T04:26:09;8.50;99.90
35240;DHT22;21376;50.954;4.716;2023-04-16T04:28:35;8.40;99.90
35240;DHT22;21376;50.954;4.716;2023-04-16T04:31:04;8.50;99.90
35240;DHT22;21376;50.954;4.716;2023-04-16T04:33:33;8.40;99.90
35240;DHT22;21376;50.954;4.716;2023-04-16T04:36:02;8.50;99.90
35240;DHT22;21376;50.954;4.716;2023-04-16T04:38:31;8.60;99.90
35240;DHT22;21376;50.954;4.716;2023-04-16T04:40:58;8.40;99.90
35240;DHT22;21376;50.954;4.716;2023-04-16T04:43:27;8.40;99.90
35240;DHT22;21376;50.954;4.716;2023-04-16T04:45:56;8.30;99.90
35240;DHT22;21376;50.954;4.716;2023-04-16T04:48:27;8.30;99.90
35240;DHT22;21376;50.954;4.716;2023-04-16T04:50:54;8.30;99.90
35240;DHT22;21376;50.954;4.716;2023-04-16T04:53:21;8.30;99.90
35240;DHT22;21376;50.954;4.716;2023-04-16T04:55:47;8.40;99.90
35240;DHT22;21376;50.954;4.716;2023-04-16T04:58:20;8.40;99.90
35240;DHT22;21376;50.954;4.716;2023-04-16T05:00:47;8.40;99.90
35240;DHT22;21376;50.954;4.716;2023-04-16T05:03:19;8.40;99.90
35240;DHT22;21376;50.954;4.716;2023-04-16T05:05:46;8.40;99.90
35240;DHT22;21376;50.954;4.716;2023-04-16T05:08:14;8.30;99.90
35240;DHT22;21376;50.954;4.716;2023-04-16T05:10:43;8.50;99.90
35240;DHT22;21376;50.954;4.716;2023-04-16T05:13:11;8.50;99.90
35240;DHT22;21376;50.954;4.716;2023-04-16T05:15:38;8.50;99.90
35240;DHT22;21376;50.954;4.716;2023-04-16T05:18:07;8.50;99.90
35240;DHT22;21376;50.954;4.716;2023-04-16T05:21:01;8.40;99.90
35240;DHT22;21376;50.954;4.716;2023-04-16T05:23:33;8.30;99.90
35240;DHT22;21376;50.954;4.716;2023-04-16T05:25:58;8.40;99.90
35240;DHT22;21376;50.954;4.716;2023-04-16T05:28:24;8.40;99.90
35240;DHT22;21376;50.954;4.716;2023-04-16T05:30:51;8.40;99.90
35240;DHT22;21376;50.954;4.716;2023-04-16T05:33:18;8.50;99.90
35240;DHT22;21376;50.954;4.716;2023-04-16T05:35:47;8.30;99.90
35240;DHT22;21376;50.954;4.716;2023-04-16T05:38:13;8.30;99.90
35240;DHT22;21376;50.954;4.716;2023-04-16T05:40:40;8.30;99.90
35240;DHT22;21376;50.954;4.716;2023-04-16T05:43:07;8.30;99.90
35240;DHT22;21376;50.954;4.716;2023-04-16T05:45:36;8.30;99.90
35240;DHT22;21376;50.954;4.716;2023-04-16T05:48:11;8.30;99.90
35240;DHT22;21376;50.954;4.716;2023-04-16T05:50:38;8.20;99.90
35240;DHT22;21376;50.954;4.716;2023-04-16T05:53:07;8.40;99.90
35240;DHT22;21376;50.954;4.716;2023-04-16T05:55:36;8.40;99.90
35240;DHT22;21376;50.954;4.716;2023-04-16T05:58:03;8.60;99.90
35240;DHT22;21376;50.954;4.716;2023-04-16T06:00:32;8.60;99.90
35240;DHT22;21376;50.954;4.716;2023-04-16T06:02:58;8.70;99.90
35240;DHT22;21376;50.954;4.716;2023-04-16T06:05:26;8.50;99.90
35240;DHT22;21376;50.954;4.716;2023-04-16T06:07:55;8.50;99.90
35240;DHT22;21376;50.954;4.716;2023-04-16T06:10:27;8.50;99.90
35240;DHT22;21376;50.954;4.716;2023-04-16T06:12:56;8.50;99.90
35240;DHT22;21376;50.954;4.716;2023-04-16T06:15:24;8.60;99.90
35240;DHT22;21376;50.954;4.716;2023-04-16T06:17:54;8.60;99.90
35240;DHT22;21376;50.954;4.716;2023-04-16T06:20:24;8.70;99.90
35240;DHT22;21376;50.954;4.716;2023-04-16T06:22:51;8.90;99.90
35240;DHT22;21376;50.954;4.716;2023-04-16T06:25:20;8.90;99.90
35240;DHT22;21376;50.954;4.716;2023-04-16T06:28:02;8.80;99.90
35240;DHT22;21376;50.954;4.716;2023-04-16T06:30:28;8.80;99.90
35240;DHT22;21376;50.954;4.716;2023-04-16T06:32:56;8.80;99.90
35240;DHT22;21376;50.954;4.716;2023-04-16T06:35:27;8.70;99.90
35240;DHT22;21376;50.954;4.716;2023-04-16T06:37:54;8.70;99.90
35240;DHT22;21376;50.954;4.716;2023-04-16T06:40:23;8.70;99.90
35240;DHT22;21376;50.954;4.716;2023-04-16T06:42:52;8.60;99.90
35240;DHT22;21376;50.954;4.716;2023-04-16T06:45:21;8.70;99.90
35240;DHT22;21376;50.954;4.716;2023-04-16T06:47:50;8.50;99.90
35240;DHT22;21376;50.954;4.716;2023-04-16T06:50:20;8.60;99.90
35240;DHT22;21376;50.954;4.716;2023-04-16T06:53:03;8.80;99.90
35240;DHT22;21376;50.954;4.716;2023-04-16T06:55:37;8.60;99.90
35240;DHT22;21376;50.954;4.716;2023-04-16T06:58:16;8.70;99.90
35240;DHT22;21376;50.954;4.716;2023-04-16T07:00:42;8.60;99.90
35240;DHT22;21376;50.954;4.716;2023-04-16T07:03:19;8.50;99.90
35240;DHT22;21376;50.954;4.716;2023-04-16T07:05:44;8.60;99.90
35240;DHT22;21376;50.954;4.716;2023-04-16T07:08:11;8.80;99.90
35240;DHT22;21376;50.954;4.716;2023-04-16T07:10:38;8.90;99.90
35240;DHT22;21376;50.954;4.716;2023-04-16T07:13:06;8.80;99.90
35240;DHT22;21376;50.954;4.716;2023-04-16T07:15:35;8.80;99.90
35240;DHT22;21376;50.954;4.716;2023-04-16T07:18:03;8.80;99.90
35240;DHT22;21376;50.954;4.716;2023-04-16T07:20:32;8.90;99.90
35240;DHT22;21376;50.954;4.716;2023-04-16T07:23:01;8.90;99.90
35240;DHT22;21376;50.954;4.716;2023-04-16T07:25:28;8.80;99.90
35240;DHT22;21376;50.954;4.716;2023-04-16T07:27:57;9.00;99.90
35240;DHT22;21376;50.954;4.716;2023-04-16T07:30:40;9.00;99.90
35240;DHT22;21376;50.954;4.716;2023-04-16T07:33:06;9.10;99.90
35240;DHT22;21376;50.954;4.716;2023-04-16T07:35:32;9.00;99.90
35240;DHT22;21376;50.954;4.716;2023-04-16T07:38:00;9.20;99.90
35240;DHT22;21376;50.954;4.716;2023-04-16T07:40:29;9.20;99.90
35240;DHT22;21376;50.954;4.716;2023-04-16T07:42:58;9.30;99.90
35240;DHT22;21376;50.954;4.716;2023-04-16T07:45:26;9.30;99.90
35240;DHT22;21376;50.954;4.716;2023-04-16T07:47:51;9.30;99.90
35240;DHT22;21376;50.954;4.716;2023-04-16T07:50:17;9.40;99.90
35240;DHT22;21376;50.954;4.716;2023-04-16T07:52:44;9.40;99.90
35240;DHT22;21376;50.954;4.716;2023-04-16T07:55:11;9.30;99.90
35240;DHT22;21376;50.954;4.716;2023-04-16T07:57:39;9.30;99.90
35240;DHT22;21376;50.954;4.716;2023-04-16T08:00:08;9.40;99.90
35240;DHT22;21376;50.954;4.716;2023-04-16T08:02:34;9.40;99.90
35240;DHT22;21376;50.954;4.716;2023-04-16T08:05:03;9.40;99.90
35240;DHT22;21376;50.954;4.716;2023-04-16T08:07:32;9.40;99.90
35240;DHT22;21376;50.954;4.716;2023-04-16T08:09:57;9.50;99.90
35240;DHT22;21376;50.954;4.716;2023-04-16T08:12:24;9.50;99.90
35240;DHT22;21376;50.954;4.716;2023-04-16T08:14:52;9.60;99.90
35240;DHT22;21376;50.954;4.716;2023-04-16T08:17:21;9.70;99.90
35240;DHT22;21376;50.954;4.716;2023-04-16T08:19:47;9.50;99.90
35240;DHT22;21376;50.954;4.716;2023-04-16T08:22:13;9.60;99.90
35240;DHT22;21376;50.954;4.716;2023-04-16T08:24:42;9.60;99.90
35240;DHT22;21376;50.954;4.716;2023-04-16T08:27:08;9.50;99.90
35240;DHT22;21376;50.954;4.716;2023-04-16T08:29:36;9.50;99.90
35240;DHT22;21376;50.954;4.716;2023-04-16T08:32:02;9.50;99.90
35240;DHT22;21376;50.954;4.716;2023-04-16T08:34:31;9.40;99.90
35240;DHT22;21376;50.954;4.716;2023-04-16T08:37:00;9.50;99.90
35240;DHT22;21376;50.954;4.716;2023-04-16T08:39:29;9.60;99.90
35240;DHT22;21376;50.954;4.716;2023-04-16T08:41:56;9.50;99.90
35240;DHT22;21376;50.954;4.716;2023-04-16T08:44:31;9.50;99.90
35240;DHT22;21376;50.954;4.716;2023-04-16T08:46:59;9.50;99.90
35240;DHT22;21376;50.954;4.716;2023-04-16T08:49:27;9.50;99.90
35240;DHT22;21376;50.954;4.716;2023-04-16T08:51:54;9.30;99.90
35240;DHT22;21376;50.954;4.716;2023-04-16T08:54:47;9.40;99.90
35240;DHT22;21376;50.954;4.716;2023-04-16T08:57:21;9.30;99.90
35240;DHT22;21376;50.954;4.716;2023-04-16T08:59:53;9.40;99.90
35240;DHT22;21376;50.954;4.716;2023-04-16T09:02:19;9.40;99.90
35240;DHT22;21376;50.954;4.716;2023-04-16T09:04:48;9.50;99.90
35240;DHT22;21376;50.954;4.716;2023-04-16T09:07:19;9.40;99.90
35240;DHT22;21376;50.954;4.716;2023-04-16T09:09:52;9.40;99.90
35240;DHT22;21376;50.954;4.716;2023-04-16T09:12:24;9.40;99.90
35240;DHT22;21376;50.954;4.716;2023-04-16T09:14:54;9.40;99.90
35240;DHT22;21376;50.954;4.716;2023-04-16T09:17:24;9.40;99.90
35240;DHT22;21376;50.954;4.716;2023-04-16T09:19:50;9.40;99.90
35240;DHT22;21376;50.954;4.716;2023-04-16T09:22:17;9.30;99.90
35240;DHT22;21376;50.954;4.716;2023-04-16T09:24:44;9.30;99.90
35240;DHT22;21376;50.954;4.716;2023-04-16T09:27:13;9.50;99.90
35240;DHT22;21376;50.954;4.716;2023-04-16T09:29:42;9.60;99.90
35240;DHT22;21376;50.954;4.716;2023-04-16T09:32:11;9.60;99.90
35240;DHT22;21376;50.954;4.716;2023-04-16T09:34:56;9.70;99.90
35240;DHT22;21376;50.954;4.716;2023-04-16T09:37:24;9.80;99.90
35240;DHT22;21376;50.954;4.716;2023-04-16T09:40:04;9.80;99.90
35240;DHT22;21376;50.954;4.716;2023-04-16T09:42:36;9.70;99.90
35240;DHT22;21376;50.954;4.716;2023-04-16T09:45:05;9.80;99.90
35240;DHT22;21376;50.954;4.716;2023-04-16T09:47:40;9.80;99.90
35240;DHT22;21376;50.954;4.716;2023-04-16T09:50:17;9.80;99.90
35240;DHT22;21376;50.954;4.716;2023-04-16T09:52:51;9.80;99.90
35240;DHT22;21376;50.954;4.716;2023-04-16T09:55:27;9.90;99.90
35240;DHT22;21376;50.954;4.716;2023-04-16T09:57:59;9.90;99.90
35240;DHT22;21376;50.954;4.716;2023-04-16T10:00:28;10.00;99.90
35240;DHT22;21376;50.954;4.716;2023-04-16T10:03:11;10.10;99.90
35240;DHT22;21376;50.954;4.716;2023-04-16T10:05:40;10.20;99.90
35240;DHT22;21376;50.954;4.716;2023-04-16T10:08:15;10.10;99.90
35240;DHT22;21376;50.954;4.716;2023-04-16T10:10:41;10.10;99.90
35240;DHT22;21376;50.954;4.716;2023-04-16T10:13:07;10.20;99.90
35240;DHT22;21376;50.954;4.716;2023-04-16T10:15:35;10.30;99.90
35240;DHT22;21376;50.954;4.716;2023-04-16T10:18:08;10.40;99.90
35240;DHT22;21376;50.954;4.716;2023-04-16T10:20:39;10.30;99.90
35240;DHT22;21376;50.954;4.716;2023-04-16T10:23:05;10.20;99.90
35240;DHT22;21376;50.954;4.716;2023-04-16T10:25:33;10.20;99.90
35240;DHT22;21376;50.954;4.716;2023-04-16T10:32:51;10.30;99.90
35240;DHT22;21376;50.954;4.716;2023-04-16T10:35:24;10.30;99.90
35240;DHT22;21376;50.954;4.716;2023-04-16T10:37:56;10.40;99.90
35240;DHT22;21376;50.954;4.716;2023-04-16T10:40:24;10.50;99.90
35240;DHT22;21376;50.954;4.716;2023-04-16T10:42:59;10.70;99.90
35240;DHT22;21376;50.954;4.716;2023-04-16T10:45:37;10.70;99.90
35240;DHT22;21376;50.954;4.716;2023-04-16T10:48:07;10.70;99.90
35240;DHT22;21376;50.954;4.716;2023-04-16T10:50:39;10.80;99.90
35240;DHT22;21376;50.954;4.716;2023-04-16T10:53:19;10.90;99.90
35240;DHT22;21376;50.954;4.716;2023-04-16T10:58:34;10.80;99.90
35240;DHT22;21376;50.954;4.716;2023-04-16T11:01:10;10.90;99.90
35240;DHT22;21376;50.954;4.716;2023-04-16T11:03:46;10.90;99.90
35240;DHT22;21376;50.954;4.716;2023-04-16T11:06:14;10.90;99.90
35240;DHT22;21376;50.954;4.716;2023-04-16T11:08:43;10.70;99.90
35240;DHT22;21376;50.954;4.716;2023-04-16T11:11:13;10.60;99.90
35240;DHT22;21376;50.954;4.716;2023-04-16T11:13:42;10.70;99.90
35240;DHT22;21376;50.954;4.716;2023-04-16T11:16:14;10.70;99.90
35240;DHT22;21376;50.954;4.716;2023-04-16T11:18:44;10.80;99.90
35240;DHT22;21376;50.954;4.716;2023-04-16T11:21:15;10.70;99.90
35240;DHT22;21376;50.954;4.716;2023-04-16T11:23:53;10.80;99.90
35240;DHT22;21376;50.954;4.716;2023-04-16T11:26:31;11.10;99.90
35240;DHT22;21376;50.954;4.716;2023-04-16T11:29:00;11.20;99.90
35240;DHT22;21376;50.954;4.716;2023-04-16T11:31:32;11.30;99.90
35240;DHT22;21376;50.954;4.716;2023-04-16T11:34:22;11.30;99.90
35240;DHT22;21376;50.954;4.716;2023-04-16T11:36:51;11.50;99.90
35240;DHT22;21376;50.954;4.716;2023-04-16T11:39:22;11.40;99.90
35240;DHT22;21376;50.954;4.716;2023-04-16T11:41:51;11.40;99.90
35240;DHT22;21376;50.954;4.716;2023-04-16T11:44:24;11.50;99.90
35240;DHT22;21376;50.954;4.716;2023-04-16T11:46:56;11.40;99.90
35240;DHT22;21376;50.954;4.716;2023-04-16T11:49:31;11.20;99.90
35240;DHT22;21376;50.954;4.716;2023-04-16T11:52:00;11.40;99.90
35240;DHT22;21376;50.954;4.716;2023-04-16T11:54:29;11.30;99.90
35240;DHT22;21376;50.954;4.716;2023-04-16T11:57:01;11.40;99.90
35240;DHT22;21376;50.954;4.716;2023-04-16T11:59:31;11.50;99.90
35240;DHT22;21376;50.954;4.716;2023-04-16T12:02:00;11.40;99.90
35240;DHT22;21376;50.954;4.716;2023-04-16T12:04:27;11.40;99.90
35240;DHT22;21376;50.954;4.716;2023-04-16T12:07:20;11.30;99.90
35240;DHT22;21376;50.954;4.716;2023-04-16T12:09:46;11.40;99.90
35240;DHT22;21376;50.954;4.716;2023-04-16T12:17:20;11.30;99.90
35240;DHT22;21376;50.954;4.716;2023-04-16T12:19:55;11.40;99.90
35240;DHT22;21376;50.954;4.716;2023-04-16T12:22:35;11.20;99.90
35240;DHT22;21376;50.954;4.716;2023-04-16T12:25:13;11.30;99.90
35240;DHT22;21376;50.954;4.716;2023-04-16T12:27:54;11.40;99.90
35240;DHT22;21376;50.954;4.716;2023-04-16T12:30:24;11.30;99.90
35240;DHT22;21376;50.954;4.716;2023-04-16T12:33:13;11.30;99.90
35240;DHT22;21376;50.954;4.716;2023-04-16T12:35:46;11.20;99.90
35240;DHT22;21376;50.954;4.716;2023-04-16T12:38:15;11.40;99.90
35240;DHT22;21376;50.954;4.716;2023-04-16T12:40:43;11.40;99.90
35240;DHT22;21376;50.954;4.716;2023-04-16T12:43:13;11.30;99.90
35240;DHT22;21376;50.954;4.716;2023-04-16T12:45:40;11.30;99.90
35240;DHT22;21376;50.954;4.716;2023-04-16T12:48:09;11.50;99.90
35240;DHT22;21376;50.954;4.716;2023-04-16T12:50:41;11.60;99.90
35240;DHT22;21376;50.954;4.716;2023-04-16T12:53:09;11.60;99.90
35240;DHT22;21376;50.954;4.716;2023-04-16T12:55:36;11.40;99.90
35240;DHT22;21376;50.954;4.716;2023-04-16T12:58:05;11.50;99.90
35240;DHT22;21376;50.954;4.716;2023-04-16T13:00:34;11.50;99.90
35240;DHT22;21376;50.954;4.716;2023-04-16T13:03:03;11.80;99.90
35240;DHT22;21376;50.954;4.716;2023-04-16T13:05:33;11.70;99.90
35240;DHT22;21376;50.954;4.716;2023-04-16T13:08:01;11.50;99.90
35240;DHT22;21376;50.954;4.716;2023-04-16T13:10:28;11.50;99.90
35240;DHT22;21376;50.954;4.716;2023-04-16T13:12:54;11.30;99.90
35240;DHT22;21376;50.954;4.716;2023-04-16T13:15:21;11.40;99.90
35240;DHT22;21376;50.954;4.716;2023-04-16T13:17:50;11.50;99.90
35240;DHT22;21376;50.954;4.716;2023-04-16T13:20:25;11.40;99.90
35240;DHT22;21376;50.954;4.716;2023-04-16T13:22:54;11.40;99.90
35240;DHT22;21376;50.954;4.716;2023-04-16T13:25:22;11.70;99.90
35240;DHT22;21376;50.954;4.716;2023-04-16T13:27:54;11.80;99.90
35240;DHT22;21376;50.954;4.716;2023-04-16T13:30:20;11.60;99.90
35240;DHT22;21376;50.954;4.716;2023-04-16T13:32:46;11.80;99.90
35240;DHT22;21376;50.954;4.716;2023-04-16T13:35:12;11.90;99.90
35240;DHT22;21376;50.954;4.716;2023-04-16T13:37:40;11.80;99.90
35240;DHT22;21376;50.954;4.716;2023-04-16T13:40:07;12.20;99.90
35240;DHT22;21376;50.954;4.716;2023-04-16T13:42:36;12.20;99.90
35240;DHT22;21376;50.954;4.716;2023-04-16T13:45:02;12.30;99.90
35240;DHT22;21376;50.954;4.716;2023-04-16T13:47:32;12.10;99.90
35240;DHT22;21376;50.954;4.716;2023-04-16T13:50:01;12.10;99.90
35240;DHT22;21376;50.954;4.716;2023-04-16T13:52:27;12.20;99.90
35240;DHT22;21376;50.954;4.716;2023-04-16T13:54:53;12.10;99.90
35240;DHT22;21376;50.954;4.716;2023-04-16T13:57:19;12.50;99.90
35240;DHT22;21376;50.954;4.716;2023-04-16T13:59:48;12.60;99.90
35240;DHT22;21376;50.954;4.716;2023-04-16T14:02:16;12.60;99.90
35240;DHT22;21376;50.954;4.716;2023-04-16T14:04:44;12.60;99.90
35240;DHT22;21376;50.954;4.716;2023-04-16T14:07:13;12.60;99.90
35240;DHT22;21376;50.954;4.716;2023-04-16T14:09:42;12.60;99.90
35240;DHT22;21376;50.954;4.716;2023-04-16T14:12:08;12.50;99.90
35240;DHT22;21376;50.954;4.716;2023-04-16T14:14:36;12.50;99.90
35240;DHT22;21376;50.954;4.716;2023-04-16T14:17:04;12.30;99.90
35240;DHT22;21376;50.954;4.716;2023-04-16T14:19:31;12.20;99.90
35240;DHT22;21376;50.954;4.716;2023-04-16T14:21:58;12.30;99.90
35240;DHT22;21376;50.954;4.716;2023-04-16T14:24:24;12.20;99.90
35240;DHT22;21376;50.954;4.716;2023-04-16T14:27:04;12.20;99.90
35240;DHT22;21376;50.954;4.716;2023-04-16T14:29:34;12.00;99.90
35240;DHT22;21376;50.954;4.716;2023-04-16T14:32:02;12.00;99.90
35240;DHT22;21376;50.954;4.716;2023-04-16T14:34:27;11.90;99.90
35240;DHT22;21376;50.954;4.716;2023-04-16T14:36:54;12.20;99.90
35240;DHT22;21376;50.954;4.716;2023-04-16T14:39:20;12.10;99.90
35240;DHT22;21376;50.954;4.716;2023-04-16T14:41:52;11.80;99.90
35240;DHT22;21376;50.954;4.716;2023-04-16T14:44:18;11.90;99.90
35240;DHT22;21376;50.954;4.716;2023-04-16T14:46:43;12.00;99.90
35240;DHT22;21376;50.954;4.716;2023-04-16T14:49:10;11.90;99.90
35240;DHT22;21376;50.954;4.716;2023-04-16T14:51:37;11.80;99.90
35240;DHT22;21376;50.954;4.716;2023-04-16T14:54:09;11.80;99.90
35240;DHT22;21376;50.954;4.716;2023-04-16T14:56:35;11.90;99.90
35240;DHT22;21376;50.954;4.716;2023-04-16T14:59:02;11.90;99.90
35240;DHT22;21376;50.954;4.716;2023-04-16T15:01:32;12.00;99.90
35240;DHT22;21376;50.954;4.716;2023-04-16T15:03:59;12.00;99.90
35240;DHT22;21376;50.954;4.716;2023-04-16T15:06:24;12.10;99.90
35240;DHT22;21376;50.954;4.716;2023-04-16T15:09:03;12.20;99.90
35240;DHT22;21376;50.954;4.716;2023-04-16T15:11:31;12.30;99.90
35240;DHT22;21376;50.954;4.716;2023-04-16T15:13:57;12.30;99.90
35240;DHT22;21376;50.954;4.716;2023-04-16T15:16:53;12.30;99.90
35240;DHT22;21376;50.954;4.716;2023-04-16T15:19:22;12.30;99.90
35240;DHT22;21376;50.954;4.716;2023-04-16T15:21:50;12.00;99.90
35240;DHT22;21376;50.954;4.716;2023-04-16T15:24:18;11.90;99.90
35240;DHT22;21376;50.954;4.716;2023-04-16T15:26:52;12.00;99.90
35240;DHT22;21376;50.954;4.716;2023-04-16T15:29:21;12.00;99.90
35240;DHT22;21376;50.954;4.716;2023-04-16T15:31:56;11.70;99.90
35240;DHT22;21376;50.954;4.716;2023-04-16T15:34:28;11.70;99.90
35240;DHT22;21376;50.954;4.716;2023-04-16T15:36:55;11.70;99.90
35240;DHT22;21376;50.954;4.716;2023-04-16T15:39:23;12.00;99.90
35240;DHT22;21376;50.954;4.716;2023-04-16T15:41:51;12.20;99.90
35240;DHT22;21376;50.954;4.716;2023-04-16T15:44:20;12.00;99.90
35240;DHT22;21376;50.954;4.716;2023-04-16T15:46:46;12.10;99.90
35240;DHT22;21376;50.954;4.716;2023-04-16T15:49:12;12.10;99.90
35240;DHT22;21376;50.954;4.716;2023-04-16T15:51:40;12.10;99.90
35240;DHT22;21376;50.954;4.716;2023-04-16T15:54:05;12.20;99.90
35240;DHT22;21376;50.954;4.716;2023-04-16T15:56:36;12.10;99.90
35240;DHT22;21376;50.954;4.716;2023-04-16T15:59:05;12.00;99.90
35240;DHT22;21376;50.954;4.716;2023-04-16T16:01:34;12.10;99.90
35240;DHT22;21376;50.954;4.716;2023-04-16T16:04:00;12.20;99.90
35240;DHT22;21376;50.954;4.716;2023-04-16T16:06:26;12.30;99.90
35240;DHT22;21376;50.954;4.716;2023-04-16T16:08:55;12.30;99.90
35240;DHT22;21376;50.954;4.716;2023-04-16T16:11:21;12.20;99.90
35240;DHT22;21376;50.954;4.716;2023-04-16T16:13:50;12.40;99.90
35240;DHT22;21376;50.954;4.716;2023-04-16T16:16:19;12.40;99.90
35240;DHT22;21376;50.954;4.716;2023-04-16T16:19:01;12.70;99.90
35240;DHT22;21376;50.954;4.716;2023-04-16T16:21:30;12.70;99.90
35240;DHT22;21376;50.954;4.716;2023-04-16T16:24:17;12.70;99.90
35240;DHT22;21376;50.954;4.716;2023-04-16T16:27:02;12.60;99.90
35240;DHT22;21376;50.954;4.716;2023-04-16T16:29:31;12.60;99.90
35240;DHT22;21376;50.954;4.716;2023-04-16T16:32:06;12.60;99.90
35240;DHT22;21376;50.954;4.716;2023-04-16T16:36:57;12.60;99.90
35240;DHT22;21376;50.954;4.716;2023-04-16T16:39:26;12.50;99.90
35240;DHT22;21376;50.954;4.716;2023-04-16T16:41:59;12.30;99.90
35240;DHT22;21376;50.954;4.716;2023-04-16T16:44:28;12.20;99.90
35240;DHT22;21376;50.954;4.716;2023-04-16T16:46:54;12.30;99.90